Overview Statistics Trail Chart Weather Telemetry Raw packets
 

This is the latest recevied weather packets stored in our database for station/object N6GPM. If no packets are shown the sender has not sent any weather packets the latest 10 day(s).

<< 69 70 71 72 73 74 75 >>
Time Temp. Humidity Pressure Rain* Wind** Luminosity Snow
1788190154 23.33° C 66% 1018 hPa 0 mm - 350 W/m² -
1788189849 22.78° C 68% 1018.1 hPa 0 mm - 329 W/m² -
1788189544 21.67° C 71% 1017.9 hPa 0 mm - 307 W/m² -
1788189243 22.22° C 70% 1018.1 hPa 0 mm - 289 W/m² -
1788188938 22.22° C 70% 1017.9 hPa 0 mm - 267 W/m² -
1788188634 22.22° C 70% 1017.9 hPa 0 mm - 246 W/m² -
1788188333 21.11° C 74% 1018 hPa 0 mm - 227 W/m² -
1788188029 21.11° C 74% 1018 hPa 0 mm - 208 W/m² -
1788187725 20.56° C 75% 1018 hPa 0 mm - 189 W/m² -
1788187421 20.56° C 76% 1017.8 hPa 0 mm - 165 W/m² -
1788187115 20.56° C 77% 1017.8 hPa 0 mm - 147 W/m² -
1788186810 20° C 77% 1017.7 hPa 0 mm - 131 W/m² -
1788186506 20° C 78% 1017.9 hPa 0 mm - 115 W/m² -
1788186200 20° C 78% 1017.7 hPa 0 mm - 101 W/m² -
1788185895 20° C 79% 1017.7 hPa 0 mm - 88 W/m² -
1788185589 19.44° C 80% 1017.5 hPa 0 mm - 76 W/m² -
1788185284 19.44° C 80% 1017.6 hPa 0 mm - 65 W/m² -
1788184978 19.44° C 81% 1017.7 hPa 0 mm - 55 W/m² -
1788184676 18.89° C 82% 1017.6 hPa 0 mm - 46 W/m² -
1788184372 18.89° C 84% 1017.4 hPa 0 mm - 38 W/m² -
1788184068 18.89° C 84% 1017.5 hPa 0 mm - 31 W/m² -
1788183764 18.33° C 85% 1017.3 hPa 0 mm - 24 W/m² -
1788183462 18.33° C 86% 1017.3 hPa 0 mm - 19 W/m² -
1788183157 18.33° C 86% 1017.2 hPa 0 mm - 12 W/m² -
1788182852 18.33° C 85% 1017.2 hPa 0 mm - 8 W/m² -

* Rain latest hour (hover to see other rain measurements)
** Current wind speed in m/s (hover to see current wind gust speed)